sensor_id;sensor_type;location;lat;lon;timestamp;P1;durP1;ratioP1;P2;durP2;ratioP2
40471;SDS011;26174;42.908;23.800;2022-08-11T00:01:44;21.88;;;11.95;;
40471;SDS011;26174;42.908;23.800;2022-08-11T00:04:11;16.38;;;10.98;;
40471;SDS011;26174;42.908;23.800;2022-08-11T00:06:38;16.33;;;11.35;;
40471;SDS011;26174;42.908;23.800;2022-08-11T00:09:06;19.30;;;10.75;;
40471;SDS011;26174;42.908;23.800;2022-08-11T00:11:34;15.65;;;10.75;;
40471;SDS011;26174;42.908;23.800;2022-08-11T00:14:02;13.50;;;10.60;;
40471;SDS011;26174;42.908;23.800;2022-08-11T00:16:28;15.45;;;10.88;;
40471;SDS011;26174;42.908;23.800;2022-08-11T00:18:55;17.48;;;10.65;;
40471;SDS011;26174;42.908;23.800;2022-08-11T00:21:22;15.85;;;11.07;;
40471;SDS011;26174;42.908;23.800;2022-08-11T00:23:54;15.50;;;10.82;;
40471;SDS011;26174;42.908;23.800;2022-08-11T00:26:23;14.93;;;10.05;;
40471;SDS011;26174;42.908;23.800;2022-08-11T00:28:49;14.98;;;10.48;;
40471;SDS011;26174;42.908;23.800;2022-08-11T00:31:29;11.48;;;9.65;;
40471;SDS011;26174;42.908;23.800;2022-08-11T00:33:55;11.68;;;9.43;;
40471;SDS011;26174;42.908;23.800;2022-08-11T00:36:27;13.98;;;9.93;;
40471;SDS011;26174;42.908;23.800;2022-08-11T00:39:04;14.90;;;11.32;;
40471;SDS011;26174;42.908;23.800;2022-08-11T00:41:33;14.45;;;10.18;;
40471;SDS011;26174;42.908;23.800;2022-08-11T00:49:39;15.95;;;10.82;;
40471;SDS011;26174;42.908;23.800;2022-08-11T00:58:07;14.40;;;11.07;;
40471;SDS011;26174;42.908;23.800;2022-08-11T01:13:07;14.13;;;11.23;;
40471;SDS011;26174;42.908;23.800;2022-08-11T01:24:27;19.23;;;13.02;;
40471;SDS011;26174;42.908;23.800;2022-08-11T01:35:46;14.73;;;11.35;;
40471;SDS011;26174;42.908;23.800;2022-08-11T01:45:10;12.10;;;10.40;;
40471;SDS011;26174;42.908;23.800;2022-08-11T02:13:13;14.05;;;10.27;;
40471;SDS011;26174;42.908;23.800;2022-08-11T02:15:49;16.00;;;10.90;;
40471;SDS011;26174;42.908;23.800;2022-08-11T02:21:22;12.43;;;10.15;;
40471;SDS011;26174;42.908;23.800;2022-08-11T02:24:13;13.50;;;10.45;;
40471;SDS011;26174;42.908;23.800;2022-08-11T02:27:17;14.25;;;10.07;;
40471;SDS011;26174;42.908;23.800;2022-08-11T02:32:18;11.23;;;9.23;;
40471;SDS011;26174;42.908;23.800;2022-08-11T02:35:29;17.08;;;10.75;;
40471;SDS011;26174;42.908;23.800;2022-08-11T02:44:31;16.42;;;10.93;;
40471;SDS011;26174;42.908;23.800;2022-08-11T02:55:31;23.55;;;14.15;;
40471;SDS011;26174;42.908;23.800;2022-08-11T03:00:48;21.50;;;16.38;;
40471;SDS011;26174;42.908;23.800;2022-08-11T03:03:20;20.42;;;14.60;;
40471;SDS011;26174;42.908;23.800;2022-08-11T03:06:09;21.40;;;14.75;;
40471;SDS011;26174;42.908;23.800;2022-08-11T03:14:28;20.83;;;14.55;;
40471;SDS011;26174;42.908;23.800;2022-08-11T03:25:44;19.60;;;14.25;;
40471;SDS011;26174;42.908;23.800;2022-08-11T03:31:22;19.15;;;13.80;;
40471;SDS011;26174;42.908;23.800;2022-08-11T03:48:02;18.00;;;13.10;;
40471;SDS011;26174;42.908;23.800;2022-08-11T03:50:52;20.00;;;14.48;;
40471;SDS011;26174;42.908;23.800;2022-08-11T04:08:19;17.08;;;13.10;;
40471;SDS011;26174;42.908;23.800;2022-08-11T04:17:17;23.92;;;16.08;;
40471;SDS011;26174;42.908;23.800;2022-08-11T04:25:28;25.75;;;18.55;;
40471;SDS011;26174;42.908;23.800;2022-08-11T05:15:10;27.67;;;16.17;;
40471;SDS011;26174;42.908;23.800;2022-08-11T05:18:09;57.15;;;23.15;;
40471;SDS011;26174;42.908;23.800;2022-08-11T05:20:57;29.40;;;22.53;;
40471;SDS011;26174;42.908;23.800;2022-08-11T05:23:55;64.93;;;28.60;;
40471;SDS011;26174;42.908;23.800;2022-08-11T05:26:45;69.32;;;27.30;;
40471;SDS011;26174;42.908;23.800;2022-08-11T05:32:40;55.08;;;17.75;;
40471;SDS011;26174;42.908;23.800;2022-08-11T05:35:28;50.42;;;18.08;;
40471;SDS011;26174;42.908;23.800;2022-08-11T05:37:56;38.25;;;20.20;;
40471;SDS011;26174;42.908;23.800;2022-08-11T05:40:50;62.95;;;23.38;;
40471;SDS011;26174;42.908;23.800;2022-08-11T05:43:39;56.13;;;21.20;;
40471;SDS011;26174;42.908;23.800;2022-08-11T05:46:26;56.80;;;26.40;;
40471;SDS011;26174;42.908;23.800;2022-08-11T05:49:10;54.78;;;20.83;;
40471;SDS011;26174;42.908;23.800;2022-08-11T05:51:56;53.95;;;21.75;;
40471;SDS011;26174;42.908;23.800;2022-08-11T05:54:41;52.35;;;24.35;;
40471;SDS011;26174;42.908;23.800;2022-08-11T05:57:30;64.97;;;26.85;;
40471;SDS011;26174;42.908;23.800;2022-08-11T06:00:01;64.38;;;30.27;;
40471;SDS011;26174;42.908;23.800;2022-08-11T06:02:43;56.80;;;28.02;;
40471;SDS011;26174;42.908;23.800;2022-08-11T06:05:12;55.30;;;24.77;;
40471;SDS011;26174;42.908;23.800;2022-08-11T06:07:38;56.13;;;22.63;;
40471;SDS011;26174;42.908;23.800;2022-08-11T06:10:04;52.72;;;25.98;;
40471;SDS011;26174;42.908;23.800;2022-08-11T06:12:31;54.40;;;21.10;;
40471;SDS011;26174;42.908;23.800;2022-08-11T06:15:05;30.30;;;17.75;;
40471;SDS011;26174;42.908;23.800;2022-08-11T06:17:33;17.23;;;14.40;;
40471;SDS011;26174;42.908;23.800;2022-08-11T06:20:05;50.78;;;20.58;;
40471;SDS011;26174;42.908;23.800;2022-08-11T06:22:33;51.60;;;23.52;;
40471;SDS011;26174;42.908;23.800;2022-08-11T06:25:00;58.25;;;25.33;;
40471;SDS011;26174;42.908;23.800;2022-08-11T06:27:28;49.90;;;25.70;;
40471;SDS011;26174;42.908;23.800;2022-08-11T06:29:55;55.53;;;28.30;;
40471;SDS011;26174;42.908;23.800;2022-08-11T06:32:31;57.42;;;27.10;;
40471;SDS011;26174;42.908;23.800;2022-08-11T06:35:02;55.50;;;26.77;;
40471;SDS011;26174;42.908;23.800;2022-08-11T06:37:38;51.75;;;23.77;;
40471;SDS011;26174;42.908;23.800;2022-08-11T06:40:24;52.03;;;18.88;;
40471;SDS011;26174;42.908;23.800;2022-08-11T06:47:57;53.78;;;24.48;;
40471;SDS011;26174;42.908;23.800;2022-08-11T06:50:27;31.02;;;18.75;;
40471;SDS011;26174;42.908;23.800;2022-08-11T06:53:12;48.10;;;21.73;;
40471;SDS011;26174;42.908;23.800;2022-08-11T06:55:40;52.90;;;23.45;;
40471;SDS011;26174;42.908;23.800;2022-08-11T06:58:31;36.40;;;22.65;;
40471;SDS011;26174;42.908;23.800;2022-08-11T07:01:28;54.78;;;25.77;;
40471;SDS011;26174;42.908;23.800;2022-08-11T07:04:05;49.65;;;21.38;;
40471;SDS011;26174;42.908;23.800;2022-08-11T07:09:18;21.13;;;17.35;;
40471;SDS011;26174;42.908;23.800;2022-08-11T07:15:20;51.45;;;29.50;;
40471;SDS011;26174;42.908;23.800;2022-08-11T07:18:10;56.10;;;27.90;;
40471;SDS011;26174;42.908;23.800;2022-08-11T07:21:10;53.47;;;23.35;;
40471;SDS011;26174;42.908;23.800;2022-08-11T07:27:40;55.22;;;25.65;;
40471;SDS011;26174;42.908;23.800;2022-08-11T07:30:26;49.20;;;26.13;;
40471;SDS011;26174;42.908;23.800;2022-08-11T07:32:54;49.42;;;27.58;;
40471;SDS011;26174;42.908;23.800;2022-08-11T07:35:27;49.08;;;27.00;;
40471;SDS011;26174;42.908;23.800;2022-08-11T07:37:58;52.33;;;20.88;;
40471;SDS011;26174;42.908;23.800;2022-08-11T07:40:26;47.42;;;24.58;;
40471;SDS011;26174;42.908;23.800;2022-08-11T07:42:53;45.20;;;22.85;;
40471;SDS011;26174;42.908;23.800;2022-08-11T07:45:19;44.30;;;24.92;;
40471;SDS011;26174;42.908;23.800;2022-08-11T07:48:05;49.78;;;23.35;;
40471;SDS011;26174;42.908;23.800;2022-08-11T07:50:50;53.47;;;25.58;;
40471;SDS011;26174;42.908;23.800;2022-08-11T07:53:34;50.53;;;19.65;;
40471;SDS011;26174;42.908;23.800;2022-08-11T07:56:04;46.67;;;22.65;;
40471;SDS011;26174;42.908;23.800;2022-08-11T07:58:40;57.03;;;24.63;;
40471;SDS011;26174;42.908;23.800;2022-08-11T08:01:27;49.60;;;19.42;;
40471;SDS011;26174;42.908;23.800;2022-08-11T08:04:13;51.83;;;26.73;;
40471;SDS011;26174;42.908;23.800;2022-08-11T08:06:59;67.30;;;21.27;;
40471;SDS011;26174;42.908;23.800;2022-08-11T08:09:44;54.53;;;24.23;;
40471;SDS011;26174;42.908;23.800;2022-08-11T08:12:29;55.28;;;24.77;;
40471;SDS011;26174;42.908;23.800;2022-08-11T08:15:14;51.50;;;25.63;;
40471;SDS011;26174;42.908;23.800;2022-08-11T08:17:59;55.75;;;22.15;;
40471;SDS011;26174;42.908;23.800;2022-08-11T08:20:27;50.13;;;26.27;;
40471;SDS011;26174;42.908;23.800;2022-08-11T08:22:58;52.50;;;24.38;;
40471;SDS011;26174;42.908;23.800;2022-08-11T08:25:26;54.47;;;30.52;;
40471;SDS011;26174;42.908;23.800;2022-08-11T08:27:53;57.85;;;27.17;;
40471;SDS011;26174;42.908;23.800;2022-08-11T08:30:20;64.55;;;31.65;;
40471;SDS011;26174;42.908;23.800;2022-08-11T08:33:05;51.63;;;29.65;;
40471;SDS011;26174;42.908;23.800;2022-08-11T08:35:31;63.00;;;31.85;;
40471;SDS011;26174;42.908;23.800;2022-08-11T08:37:59;52.22;;;25.77;;
40471;SDS011;26174;42.908;23.800;2022-08-11T08:40:25;60.63;;;31.83;;
40471;SDS011;26174;42.908;23.800;2022-08-11T08:42:55;64.47;;;33.80;;
40471;SDS011;26174;42.908;23.800;2022-08-11T08:45:22;55.13;;;29.50;;
40471;SDS011;26174;42.908;23.800;2022-08-11T08:47:57;59.38;;;33.45;;
40471;SDS011;26174;42.908;23.800;2022-08-11T08:50:26;54.60;;;27.33;;
40471;SDS011;26174;42.908;23.800;2022-08-11T08:53:16;58.65;;;33.25;;
40471;SDS011;26174;42.908;23.800;2022-08-11T08:55:45;72.63;;;38.25;;
40471;SDS011;26174;42.908;23.800;2022-08-11T08:58:14;59.83;;;36.03;;
40471;SDS011;26174;42.908;23.800;2022-08-11T09:00:44;54.63;;;34.33;;
40471;SDS011;26174;42.908;23.800;2022-08-11T09:03:10;51.33;;;27.13;;
40471;SDS011;26174;42.908;23.800;2022-08-11T09:05:37;46.42;;;24.90;;
40471;SDS011;26174;42.908;23.800;2022-08-11T09:08:04;47.53;;;26.35;;
40471;SDS011;26174;42.908;23.800;2022-08-11T09:10:30;56.05;;;24.80;;
40471;SDS011;26174;42.908;23.800;2022-08-11T09:12:57;44.92;;;22.00;;
40471;SDS011;26174;42.908;23.800;2022-08-11T09:15:24;46.42;;;20.83;;
40471;SDS011;26174;42.908;23.800;2022-08-11T09:17:54;44.90;;;19.10;;
40471;SDS011;26174;42.908;23.800;2022-08-11T09:20:27;51.47;;;24.20;;
40471;SDS011;26174;42.908;23.800;2022-08-11T09:22:58;46.78;;;24.33;;
40471;SDS011;26174;42.908;23.800;2022-08-11T09:25:56;56.53;;;21.17;;
40471;SDS011;26174;42.908;23.800;2022-08-11T09:28:43;59.63;;;24.55;;
40471;SDS011;26174;42.908;23.800;2022-08-11T09:31:10;53.92;;;28.50;;
40471;SDS011;26174;42.908;23.800;2022-08-11T09:33:37;54.38;;;30.98;;
40471;SDS011;26174;42.908;23.800;2022-08-11T09:36:03;46.58;;;28.23;;
40471;SDS011;26174;42.908;23.800;2022-08-11T09:38:50;56.65;;;30.60;;
40471;SDS011;26174;42.908;23.800;2022-08-11T09:41:35;73.75;;;43.25;;
40471;SDS011;26174;42.908;23.800;2022-08-11T09:44:02;56.65;;;24.75;;
40471;SDS011;26174;42.908;23.800;2022-08-11T09:46:46;50.63;;;26.77;;
40471;SDS011;26174;42.908;23.800;2022-08-11T09:49:13;48.95;;;21.13;;
40471;SDS011;26174;42.908;23.800;2022-08-11T09:51:38;42.60;;;17.05;;
40471;SDS011;26174;42.908;23.800;2022-08-11T09:54:05;49.80;;;20.73;;
40471;SDS011;26174;42.908;23.800;2022-08-11T09:56:31;50.65;;;22.02;;
40471;SDS011;26174;42.908;23.800;2022-08-11T09:59:17;47.35;;;21.25;;
40471;SDS011;26174;42.908;23.800;2022-08-11T10:01:44;50.72;;;23.20;;
40471;SDS011;26174;42.908;23.800;2022-08-11T10:04:26;55.75;;;22.17;;
40471;SDS011;26174;42.908;23.800;2022-08-11T10:06:59;61.25;;;25.42;;
40471;SDS011;26174;42.908;23.800;2022-08-11T10:09:37;48.47;;;26.92;;
40471;SDS011;26174;42.908;23.800;2022-08-11T10:12:07;44.92;;;25.98;;
40471;SDS011;26174;42.908;23.800;2022-08-11T10:14:36;43.97;;;19.15;;
40471;SDS011;26174;42.908;23.800;2022-08-11T10:17:24;49.15;;;21.55;;
40471;SDS011;26174;42.908;23.800;2022-08-11T10:19:51;45.10;;;26.00;;
40471;SDS011;26174;42.908;23.800;2022-08-11T10:22:17;54.05;;;27.67;;
40471;SDS011;26174;42.908;23.800;2022-08-11T10:25:02;58.33;;;28.55;;
40471;SDS011;26174;42.908;23.800;2022-08-11T10:27:47;48.78;;;23.52;;
40471;SDS011;26174;42.908;23.800;2022-08-11T10:30:20;57.95;;;26.80;;
40471;SDS011;26174;42.908;23.800;2022-08-11T10:33:04;62.92;;;23.05;;
40471;SDS011;26174;42.908;23.800;2022-08-11T10:35:48;49.03;;;23.08;;
40471;SDS011;26174;42.908;23.800;2022-08-11T10:38:14;48.95;;;18.20;;
40471;SDS011;26174;42.908;23.800;2022-08-11T10:40:40;50.88;;;21.08;;
40471;SDS011;26174;42.908;23.800;2022-08-11T10:43:10;55.63;;;25.10;;
40471;SDS011;26174;42.908;23.800;2022-08-11T10:45:40;65.13;;;27.17;;
40471;SDS011;26174;42.908;23.800;2022-08-11T10:48:27;62.17;;;32.83;;
40471;SDS011;26174;42.908;23.800;2022-08-11T10:50:53;55.17;;;27.83;;
40471;SDS011;26174;42.908;23.800;2022-08-11T10:53:42;54.60;;;33.03;;
40471;SDS011;26174;42.908;23.800;2022-08-11T10:56:28;65.57;;;24.30;;
40471;SDS011;26174;42.908;23.800;2022-08-11T10:59:13;63.67;;;30.67;;
40471;SDS011;26174;42.908;23.800;2022-08-11T11:01:40;48.20;;;23.60;;
40471;SDS011;26174;42.908;23.800;2022-08-11T11:04:12;85.30;;;22.65;;
40471;SDS011;26174;42.908;23.800;2022-08-11T11:06:52;76.78;;;26.17;;
40471;SDS011;26174;42.908;23.800;2022-08-11T11:15:08;50.53;;;30.27;;
40471;SDS011;26174;42.908;23.800;2022-08-11T11:17:55;52.20;;;21.80;;
40471;SDS011;26174;42.908;23.800;2022-08-11T11:31:50;53.42;;;18.42;;
40471;SDS011;26174;42.908;23.800;2022-08-11T11:37:15;46.78;;;20.60;;
40471;SDS011;26174;42.908;23.800;2022-08-11T11:39:42;49.55;;;23.27;;
40471;SDS011;26174;42.908;23.800;2022-08-11T11:42:08;50.90;;;18.83;;
40471;SDS011;26174;42.908;23.800;2022-08-11T11:44:38;56.80;;;23.75;;
40471;SDS011;26174;42.908;23.800;2022-08-11T11:47:04;67.05;;;21.88;;
40471;SDS011;26174;42.908;23.800;2022-08-11T11:49:31;103.65;;;27.13;;
40471;SDS011;26174;42.908;23.800;2022-08-11T11:51:57;55.40;;;28.00;;
40471;SDS011;26174;42.908;23.800;2022-08-11T11:54:25;48.72;;;22.27;;
40471;SDS011;26174;42.908;23.800;2022-08-11T11:56:52;50.60;;;21.83;;
40471;SDS011;26174;42.908;23.800;2022-08-11T11:59:19;57.38;;;21.35;;
40471;SDS011;26174;42.908;23.800;2022-08-11T12:02:05;51.25;;;26.17;;
40471;SDS011;26174;42.908;23.800;2022-08-11T12:04:31;47.13;;;22.95;;
40471;SDS011;26174;42.908;23.800;2022-08-11T12:06:57;48.78;;;22.60;;
40471;SDS011;26174;42.908;23.800;2022-08-11T12:09:43;53.10;;;23.05;;
40471;SDS011;26174;42.908;23.800;2022-08-11T12:12:10;55.30;;;20.52;;
40471;SDS011;26174;42.908;23.800;2022-08-11T12:14:54;49.10;;;21.55;;
40471;SDS011;26174;42.908;23.800;2022-08-11T12:17:20;50.03;;;19.42;;
40471;SDS011;26174;42.908;23.800;2022-08-11T12:19:46;50.33;;;23.17;;
40471;SDS011;26174;42.908;23.800;2022-08-11T12:22:13;51.25;;;22.00;;
40471;SDS011;26174;42.908;23.800;2022-08-11T12:24:57;60.63;;;26.80;;
40471;SDS011;26174;42.908;23.800;2022-08-11T12:27:55;56.92;;;34.67;;
40471;SDS011;26174;42.908;23.800;2022-08-11T12:30:20;63.40;;;33.75;;
40471;SDS011;26174;42.908;23.800;2022-08-11T12:32:46;62.55;;;38.60;;
40471;SDS011;26174;42.908;23.800;2022-08-11T12:35:14;58.42;;;31.58;;
40471;SDS011;26174;42.908;23.800;2022-08-11T12:37:41;56.20;;;23.65;;
40471;SDS011;26174;42.908;23.800;2022-08-11T12:40:12;65.35;;;31.65;;
40471;SDS011;26174;42.908;23.800;2022-08-11T12:42:59;70.00;;;36.72;;
40471;SDS011;26174;42.908;23.800;2022-08-11T12:45:45;57.55;;;25.80;;
40471;SDS011;26174;42.908;23.800;2022-08-11T12:48:12;74.72;;;31.50;;
40471;SDS011;26174;42.908;23.800;2022-08-11T12:51:00;51.30;;;29.25;;
40471;SDS011;26174;42.908;23.800;2022-08-11T12:53:54;63.05;;;27.65;;
40471;SDS011;26174;42.908;23.800;2022-08-11T12:56:23;50.80;;;18.77;;
40471;SDS011;26174;42.908;23.800;2022-08-11T12:59:08;52.75;;;21.38;;
40471;SDS011;26174;42.908;23.800;2022-08-11T13:01:53;53.20;;;21.42;;
40471;SDS011;26174;42.908;23.800;2022-08-11T13:04:38;57.58;;;25.48;;
40471;SDS011;26174;42.908;23.800;2022-08-11T13:07:18;48.53;;;24.92;;
40471;SDS011;26174;42.908;23.800;2022-08-11T13:09:44;47.67;;;24.08;;
40471;SDS011;26174;42.908;23.800;2022-08-11T13:12:10;43.83;;;19.40;;
40471;SDS011;26174;42.908;23.800;2022-08-11T13:14:54;35.33;;;20.25;;
40471;SDS011;26174;42.908;23.800;2022-08-11T13:17:21;36.30;;;18.60;;
40471;SDS011;26174;42.908;23.800;2022-08-11T13:19:47;37.78;;;20.80;;
40471;SDS011;26174;42.908;23.800;2022-08-11T13:22:15;37.88;;;19.30;;
40471;SDS011;26174;42.908;23.800;2022-08-11T13:24:42;34.28;;;17.10;;
40471;SDS011;26174;42.908;23.800;2022-08-11T13:27:08;35.72;;;15.82;;
40471;SDS011;26174;42.908;23.800;2022-08-11T13:29:36;44.42;;;22.55;;
40471;SDS011;26174;42.908;23.800;2022-08-11T13:32:02;47.53;;;20.50;;
40471;SDS011;26174;42.908;23.800;2022-08-11T13:34:29;35.50;;;18.80;;
40471;SDS011;26174;42.908;23.800;2022-08-11T13:36:56;35.85;;;20.17;;
40471;SDS011;26174;42.908;23.800;2022-08-11T13:39:25;39.92;;;22.60;;
40471;SDS011;26174;42.908;23.800;2022-08-11T13:41:56;43.53;;;19.35;;
40471;SDS011;26174;42.908;23.800;2022-08-11T13:44:25;38.77;;;21.03;;
40471;SDS011;26174;42.908;23.800;2022-08-11T13:46:55;55.92;;;20.40;;
40471;SDS011;26174;42.908;23.800;2022-08-11T13:49:22;42.15;;;30.50;;
40471;SDS011;26174;42.908;23.800;2022-08-11T13:51:48;51.20;;;20.83;;
40471;SDS011;26174;42.908;23.800;2022-08-11T13:54:15;39.25;;;20.45;;
40471;SDS011;26174;42.908;23.800;2022-08-11T13:56:43;35.92;;;14.02;;
40471;SDS011;26174;42.908;23.800;2022-08-11T13:59:10;34.78;;;18.30;;
40471;SDS011;26174;42.908;23.800;2022-08-11T14:01:38;41.35;;;16.30;;
40471;SDS011;26174;42.908;23.800;2022-08-11T14:04:17;39.10;;;16.00;;
40471;SDS011;26174;42.908;23.800;2022-08-11T14:09:15;38.60;;;15.25;;
40471;SDS011;26174;42.908;23.800;2022-08-11T14:14:31;31.27;;;19.67;;
40471;SDS011;26174;42.908;23.800;2022-08-11T14:17:00;34.05;;;23.38;;
40471;SDS011;26174;42.908;23.800;2022-08-11T14:19:31;33.35;;;19.05;;
40471;SDS011;26174;42.908;23.800;2022-08-11T14:22:00;34.67;;;18.17;;
40471;SDS011;26174;42.908;23.800;2022-08-11T14:24:39;29.88;;;14.88;;
40471;SDS011;26174;42.908;23.800;2022-08-11T14:27:06;35.72;;;20.35;;
40471;SDS011;26174;42.908;23.800;2022-08-11T14:29:33;29.08;;;17.02;;
40471;SDS011;26174;42.908;23.800;2022-08-11T14:32:04;31.77;;;15.30;;
40471;SDS011;26174;42.908;23.800;2022-08-11T14:34:33;28.00;;;16.02;;
40471;SDS011;26174;42.908;23.800;2022-08-11T14:37:00;33.08;;;16.65;;
40471;SDS011;26174;42.908;23.800;2022-08-11T14:39:35;32.85;;;18.40;;
40471;SDS011;26174;42.908;23.800;2022-08-11T14:42:05;32.53;;;18.65;;
40471;SDS011;26174;42.908;23.800;2022-08-11T14:44:51;28.08;;;17.35;;
40471;SDS011;26174;42.908;23.800;2022-08-11T14:47:27;30.67;;;20.40;;
40471;SDS011;26174;42.908;23.800;2022-08-11T14:49:55;31.98;;;17.67;;
40471;SDS011;26174;42.908;23.800;2022-08-11T14:52:23;32.67;;;17.60;;
40471;SDS011;26174;42.908;23.800;2022-08-11T14:54:50;34.53;;;21.38;;
40471;SDS011;26174;42.908;23.800;2022-08-11T14:57:36;26.23;;;16.80;;
40471;SDS011;26174;42.908;23.800;2022-08-11T15:00:04;26.38;;;13.27;;
40471;SDS011;26174;42.908;23.800;2022-08-11T15:02:32;30.00;;;17.83;;
40471;SDS011;26174;42.908;23.800;2022-08-11T15:05:17;37.00;;;17.85;;
40471;SDS011;26174;42.908;23.800;2022-08-11T15:07:44;35.50;;;20.42;;
40471;SDS011;26174;42.908;23.800;2022-08-11T15:10:10;29.88;;;20.45;;
40471;SDS011;26174;42.908;23.800;2022-08-11T15:15:21;28.05;;;17.85;;
40471;SDS011;26174;42.908;23.800;2022-08-11T15:18:05;29.75;;;20.00;;
40471;SDS011;26174;42.908;23.800;2022-08-11T15:20:32;36.60;;;16.80;;
40471;SDS011;26174;42.908;23.800;2022-08-11T15:23:16;27.88;;;14.05;;
40471;SDS011;26174;42.908;23.800;2022-08-11T15:26:02;33.88;;;22.50;;
40471;SDS011;26174;42.908;23.800;2022-08-11T15:28:32;30.45;;;19.30;;
40471;SDS011;26174;42.908;23.800;2022-08-11T15:31:19;29.20;;;19.08;;
40471;SDS011;26174;42.908;23.800;2022-08-11T15:34:05;35.40;;;25.00;;
40471;SDS011;26174;42.908;23.800;2022-08-11T15:36:54;32.42;;;20.50;;
40471;SDS011;26174;42.908;23.800;2022-08-11T15:39:48;31.83;;;20.02;;
40471;SDS011;26174;42.908;23.800;2022-08-11T15:42:37;25.55;;;18.52;;
40471;SDS011;26174;42.908;23.800;2022-08-11T15:45:26;26.23;;;21.90;;
40471;SDS011;26174;42.908;23.800;2022-08-11T15:48:11;29.88;;;20.42;;
40471;SDS011;26174;42.908;23.800;2022-08-11T15:50:40;32.13;;;21.13;;
40471;SDS011;26174;42.908;23.800;2022-08-11T15:58:38;29.70;;;16.17;;
40471;SDS011;26174;42.908;23.800;2022-08-11T16:01:25;30.00;;;18.13;;
40471;SDS011;26174;42.908;23.800;2022-08-11T16:04:13;29.48;;;20.25;;
40471;SDS011;26174;42.908;23.800;2022-08-11T16:09:16;30.02;;;22.95;;
40471;SDS011;26174;42.908;23.800;2022-08-11T16:11:45;26.98;;;16.77;;
40471;SDS011;26174;42.908;23.800;2022-08-11T16:14:12;25.35;;;20.90;;
40471;SDS011;26174;42.908;23.800;2022-08-11T16:16:57;24.35;;;15.18;;
40471;SDS011;26174;42.908;23.800;2022-08-11T16:19:23;34.47;;;19.92;;
40471;SDS011;26174;42.908;23.800;2022-08-11T16:21:52;32.47;;;18.38;;
40471;SDS011;26174;42.908;23.800;2022-08-11T16:24:19;26.75;;;19.25;;
40471;SDS011;26174;42.908;23.800;2022-08-11T16:26:46;29.38;;;19.00;;
40471;SDS011;26174;42.908;23.800;2022-08-11T16:29:13;21.58;;;14.35;;
40471;SDS011;26174;42.908;23.800;2022-08-11T16:31:39;24.15;;;17.02;;
40471;SDS011;26174;42.908;23.800;2022-08-11T16:34:06;24.48;;;21.48;;
40471;SDS011;26174;42.908;23.800;2022-08-11T16:36:54;24.85;;;18.52;;
40471;SDS011;26174;42.908;23.800;2022-08-11T16:39:39;21.27;;;18.73;;
40471;SDS011;26174;42.908;23.800;2022-08-11T16:42:05;28.60;;;17.85;;
40471;SDS011;26174;42.908;23.800;2022-08-11T16:44:50;22.45;;;15.82;;
40471;SDS011;26174;42.908;23.800;2022-08-11T16:47:35;24.60;;;15.00;;
40471;SDS011;26174;42.908;23.800;2022-08-11T16:50:01;19.80;;;12.40;;
40471;SDS011;26174;42.908;23.800;2022-08-11T16:52:27;24.15;;;14.88;;
40471;SDS011;26174;42.908;23.800;2022-08-11T16:54:53;21.92;;;13.15;;
40471;SDS011;26174;42.908;23.800;2022-08-11T16:57:23;19.65;;;15.65;;
40471;SDS011;26174;42.908;23.800;2022-08-11T17:00:09;28.48;;;16.95;;
40471;SDS011;26174;42.908;23.800;2022-08-11T17:02:48;19.33;;;14.13;;
40471;SDS011;26174;42.908;23.800;2022-08-11T17:05:33;19.95;;;13.60;;
40471;SDS011;26174;42.908;23.800;2022-08-11T17:08:50;22.60;;;14.50;;
40471;SDS011;26174;42.908;23.800;2022-08-11T17:11:43;24.33;;;15.75;;
40471;SDS011;26174;42.908;23.800;2022-08-11T17:15:03;18.90;;;10.93;;
40471;SDS011;26174;42.908;23.800;2022-08-11T17:17:35;18.65;;;12.85;;
40471;SDS011;26174;42.908;23.800;2022-08-11T17:20:03;17.60;;;11.05;;
40471;SDS011;26174;42.908;23.800;2022-08-11T17:22:34;58.95;;;13.57;;
40471;SDS011;26174;42.908;23.800;2022-08-11T17:25:19;17.63;;;11.52;;
40471;SDS011;26174;42.908;23.800;2022-08-11T17:27:47;16.00;;;10.98;;
40471;SDS011;26174;42.908;23.800;2022-08-11T17:30:13;16.30;;;9.70;;
40471;SDS011;26174;42.908;23.800;2022-08-11T17:32:42;15.25;;;10.40;;
40471;SDS011;26174;42.908;23.800;2022-08-11T17:35:34;15.85;;;10.32;;
40471;SDS011;26174;42.908;23.800;2022-08-11T17:40:37;14.95;;;10.48;;
40471;SDS011;26174;42.908;23.800;2022-08-11T17:43:07;11.43;;;5.03;;
40471;SDS011;26174;42.908;23.800;2022-08-11T17:45:51;14.23;;;9.80;;
40471;SDS011;26174;42.908;23.800;2022-08-11T17:48:39;11.73;;;9.52;;
40471;SDS011;26174;42.908;23.800;2022-08-11T17:54:01;11.60;;;9.32;;
40471;SDS011;26174;42.908;23.800;2022-08-11T17:56:47;15.60;;;10.57;;
40471;SDS011;26174;42.908;23.800;2022-08-11T17:59:32;16.70;;;11.32;;
40471;SDS011;26174;42.908;23.800;2022-08-11T18:02:21;16.80;;;8.80;;
40471;SDS011;26174;42.908;23.800;2022-08-11T18:05:08;16.02;;;12.80;;
40471;SDS011;26174;42.908;23.800;2022-08-11T18:07:35;8.02;;;6.25;;
40471;SDS011;26174;42.908;23.800;2022-08-11T18:10:20;10.68;;;5.97;;
40471;SDS011;26174;42.908;23.800;2022-08-11T18:13:05;11.88;;;7.43;;
40471;SDS011;26174;42.908;23.800;2022-08-11T18:15:49;18.23;;;9.93;;
40471;SDS011;26174;42.908;23.800;2022-08-11T18:18:34;11.20;;;8.13;;
40471;SDS011;26174;42.908;23.800;2022-08-11T18:21:18;10.18;;;7.25;;
40471;SDS011;26174;42.908;23.800;2022-08-11T18:24:05;8.98;;;7.70;;
40471;SDS011;26174;42.908;23.800;2022-08-11T18:26:51;11.32;;;7.80;;
40471;SDS011;26174;42.908;23.800;2022-08-11T18:29:37;10.13;;;6.97;;
40471;SDS011;26174;42.908;23.800;2022-08-11T18:32:23;8.50;;;6.45;;
40471;SDS011;26174;42.908;23.800;2022-08-11T18:35:09;9.60;;;6.28;;
40471;SDS011;26174;42.908;23.800;2022-08-11T18:37:53;8.40;;;6.93;;
40471;SDS011;26174;42.908;23.800;2022-08-11T18:40:40;8.07;;;6.00;;
40471;SDS011;26174;42.908;23.800;2022-08-11T18:43:26;6.55;;;4.93;;
40471;SDS011;26174;42.908;23.800;2022-08-11T18:46:11;8.27;;;6.30;;
40471;SDS011;26174;42.908;23.800;2022-08-11T18:49:07;15.27;;;6.35;;
40471;SDS011;26174;42.908;23.800;2022-08-11T18:52:02;15.25;;;7.32;;
40471;SDS011;26174;42.908;23.800;2022-08-11T18:54:47;7.68;;;5.95;;
40471;SDS011;26174;42.908;23.800;2022-08-11T18:57:33;8.52;;;5.28;;
40471;SDS011;26174;42.908;23.800;2022-08-11T19:00:20;9.60;;;5.82;;
40471;SDS011;26174;42.908;23.800;2022-08-11T19:03:04;7.07;;;5.20;;
40471;SDS011;26174;42.908;23.800;2022-08-11T19:05:50;8.10;;;6.28;;
40471;SDS011;26174;42.908;23.800;2022-08-11T19:08:36;11.70;;;7.97;;
40471;SDS011;26174;42.908;23.800;2022-08-11T19:11:23;8.02;;;5.97;;
40471;SDS011;26174;42.908;23.800;2022-08-11T19:14:07;9.15;;;5.25;;
40471;SDS011;26174;42.908;23.800;2022-08-11T19:16:51;5.70;;;4.82;;
40471;SDS011;26174;42.908;23.800;2022-08-11T19:19:37;9.95;;;7.78;;
40471;SDS011;26174;42.908;23.800;2022-08-11T19:22:22;9.73;;;5.43;;
40471;SDS011;26174;42.908;23.800;2022-08-11T19:25:07;7.97;;;4.97;;